sensor_id;sensor_type;location;lat;lon;timestamp;P1;durP1;ratioP1;P2;durP2;ratioP2
51499;SDS011;39101;53.478;6.158;2023-06-10T00:01:57;14.15;;;7.30;;
51499;SDS011;39101;53.478;6.158;2023-06-10T00:04:23;13.40;;;7.13;;
51499;SDS011;39101;53.478;6.158;2023-06-10T00:06:48;13.10;;;8.25;;
51499;SDS011;39101;53.478;6.158;2023-06-10T00:09:14;13.23;;;8.15;;
51499;SDS011;39101;53.478;6.158;2023-06-10T00:11:41;14.77;;;7.10;;
51499;SDS011;39101;53.478;6.158;2023-06-10T00:14:07;15.40;;;8.00;;
51499;SDS011;39101;53.478;6.158;2023-06-10T00:16:33;13.30;;;7.68;;
51499;SDS011;39101;53.478;6.158;2023-06-10T00:19:01;12.57;;;7.40;;
51499;SDS011;39101;53.478;6.158;2023-06-10T00:21:28;11.55;;;7.43;;
51499;SDS011;39101;53.478;6.158;2023-06-10T00:23:55;14.07;;;7.68;;
51499;SDS011;39101;53.478;6.158;2023-06-10T00:26:24;15.02;;;8.40;;
51499;SDS011;39101;53.478;6.158;2023-06-10T00:28:51;10.95;;;8.35;;
51499;SDS011;39101;53.478;6.158;2023-06-10T00:31:17;20.70;;;9.38;;
51499;SDS011;39101;53.478;6.158;2023-06-10T00:33:43;13.65;;;8.27;;
51499;SDS011;39101;53.478;6.158;2023-06-10T00:36:09;10.60;;;7.78;;
51499;SDS011;39101;53.478;6.158;2023-06-10T00:38:35;11.05;;;7.82;;
51499;SDS011;39101;53.478;6.158;2023-06-10T00:41:00;14.65;;;7.57;;
51499;SDS011;39101;53.478;6.158;2023-06-10T00:43:26;10.02;;;7.28;;
51499;SDS011;39101;53.478;6.158;2023-06-10T00:45:52;14.77;;;8.18;;
51499;SDS011;39101;53.478;6.158;2023-06-10T00:48:18;12.05;;;6.97;;
51499;SDS011;39101;53.478;6.158;2023-06-10T00:50:45;11.60;;;7.22;;
51499;SDS011;39101;53.478;6.158;2023-06-10T00:53:11;14.07;;;7.70;;
51499;SDS011;39101;53.478;6.158;2023-06-10T00:55:37;12.82;;;7.40;;
51499;SDS011;39101;53.478;6.158;2023-06-10T00:58:03;12.30;;;7.90;;
51499;SDS011;39101;53.478;6.158;2023-06-10T01:00:29;13.98;;;7.75;;
51499;SDS011;39101;53.478;6.158;2023-06-10T01:02:55;13.10;;;7.13;;
51499;SDS011;39101;53.478;6.158;2023-06-10T01:05:21;11.10;;;7.53;;
51499;SDS011;39101;53.478;6.158;2023-06-10T01:07:50;11.57;;;7.90;;
51499;SDS011;39101;53.478;6.158;2023-06-10T01:10:36;11.82;;;7.38;;
51499;SDS011;39101;53.478;6.158;2023-06-10T01:13:06;13.98;;;7.25;;
51499;SDS011;39101;53.478;6.158;2023-06-10T01:15:37;13.57;;;7.35;;
51499;SDS011;39101;53.478;6.158;2023-06-10T01:18:07;12.57;;;7.25;;
51499;SDS011;39101;53.478;6.158;2023-06-10T01:20:35;14.43;;;7.30;;
51499;SDS011;39101;53.478;6.158;2023-06-10T01:23:05;10.82;;;6.55;;
51499;SDS011;39101;53.478;6.158;2023-06-10T01:25:31;11.05;;;8.10;;
51499;SDS011;39101;53.478;6.158;2023-06-10T01:28:12;13.98;;;7.20;;
51499;SDS011;39101;53.478;6.158;2023-06-10T01:33:37;10.80;;;6.43;;
51499;SDS011;39101;53.478;6.158;2023-06-10T01:36:06;10.63;;;7.30;;
51499;SDS011;39101;53.478;6.158;2023-06-10T01:38:33;12.05;;;6.78;;
51499;SDS011;39101;53.478;6.158;2023-06-10T01:41:04;12.50;;;7.40;;
51499;SDS011;39101;53.478;6.158;2023-06-10T01:43:34;9.98;;;7.03;;
51499;SDS011;39101;53.478;6.158;2023-06-10T01:46:02;12.13;;;6.45;;
51499;SDS011;39101;53.478;6.158;2023-06-10T01:48:28;13.60;;;6.68;;
51499;SDS011;39101;53.478;6.158;2023-06-10T01:50:53;12.57;;;7.00;;
51499;SDS011;39101;53.478;6.158;2023-06-10T01:53:21;10.13;;;6.82;;
51499;SDS011;39101;53.478;6.158;2023-06-10T01:55:47;10.90;;;6.80;;
51499;SDS011;39101;53.478;6.158;2023-06-10T01:58:13;12.48;;;7.85;;
51499;SDS011;39101;53.478;6.158;2023-06-10T02:00:39;13.75;;;7.07;;
51499;SDS011;39101;53.478;6.158;2023-06-10T02:03:05;11.52;;;6.20;;
51499;SDS011;39101;53.478;6.158;2023-06-10T02:05:30;11.45;;;6.85;;
51499;SDS011;39101;53.478;6.158;2023-06-10T02:07:57;10.57;;;6.28;;
51499;SDS011;39101;53.478;6.158;2023-06-10T02:10:22;11.90;;;6.82;;
51499;SDS011;39101;53.478;6.158;2023-06-10T02:12:48;11.82;;;6.07;;
51499;SDS011;39101;53.478;6.158;2023-06-10T02:15:14;11.57;;;7.03;;
51499;SDS011;39101;53.478;6.158;2023-06-10T02:17:40;13.40;;;6.75;;
51499;SDS011;39101;53.478;6.158;2023-06-10T02:20:06;14.65;;;7.05;;
51499;SDS011;39101;53.478;6.158;2023-06-10T02:22:33;10.68;;;6.75;;
51499;SDS011;39101;53.478;6.158;2023-06-10T02:24:59;12.07;;;6.93;;
51499;SDS011;39101;53.478;6.158;2023-06-10T02:27:24;12.73;;;7.22;;
51499;SDS011;39101;53.478;6.158;2023-06-10T02:29:50;11.00;;;7.03;;
51499;SDS011;39101;53.478;6.158;2023-06-10T02:32:16;9.18;;;6.15;;
51499;SDS011;39101;53.478;6.158;2023-06-10T02:34:42;11.35;;;6.75;;
51499;SDS011;39101;53.478;6.158;2023-06-10T02:37:08;12.82;;;6.55;;
51499;SDS011;39101;53.478;6.158;2023-06-10T02:39:34;13.00;;;7.65;;
51499;SDS011;39101;53.478;6.158;2023-06-10T02:42:00;13.40;;;6.75;;
51499;SDS011;39101;53.478;6.158;2023-06-10T02:44:25;11.82;;;6.65;;
51499;SDS011;39101;53.478;6.158;2023-06-10T02:46:51;12.63;;;6.78;;
51499;SDS011;39101;53.478;6.158;2023-06-10T02:49:17;10.40;;;6.32;;
51499;SDS011;39101;53.478;6.158;2023-06-10T02:51:42;10.85;;;7.30;;
51499;SDS011;39101;53.478;6.158;2023-06-10T02:54:08;12.90;;;7.28;;
51499;SDS011;39101;53.478;6.158;2023-06-10T02:56:34;18.75;;;7.53;;
51499;SDS011;39101;53.478;6.158;2023-06-10T02:58:59;12.32;;;6.93;;
51499;SDS011;39101;53.478;6.158;2023-06-10T03:01:25;15.65;;;6.28;;
51499;SDS011;39101;53.478;6.158;2023-06-10T03:03:51;12.23;;;6.20;;
51499;SDS011;39101;53.478;6.158;2023-06-10T03:06:17;16.25;;;7.47;;
51499;SDS011;39101;53.478;6.158;2023-06-10T03:08:43;13.60;;;7.13;;
51499;SDS011;39101;53.478;6.158;2023-06-10T03:11:10;13.48;;;6.90;;
51499;SDS011;39101;53.478;6.158;2023-06-10T03:13:38;13.38;;;6.35;;
51499;SDS011;39101;53.478;6.158;2023-06-10T03:16:03;13.48;;;6.32;;
51499;SDS011;39101;53.478;6.158;2023-06-10T03:18:29;11.43;;;6.70;;
51499;SDS011;39101;53.478;6.158;2023-06-10T03:20:55;11.55;;;6.40;;
51499;SDS011;39101;53.478;6.158;2023-06-10T03:23:22;14.65;;;6.22;;
51499;SDS011;39101;53.478;6.158;2023-06-10T03:25:48;13.15;;;6.53;;
51499;SDS011;39101;53.478;6.158;2023-06-10T03:28:14;14.65;;;7.85;;
51499;SDS011;39101;53.478;6.158;2023-06-10T03:30:39;13.68;;;6.78;;
51499;SDS011;39101;53.478;6.158;2023-06-10T03:33:05;14.60;;;6.38;;
51499;SDS011;39101;53.478;6.158;2023-06-10T03:35:31;11.07;;;7.07;;
51499;SDS011;39101;53.478;6.158;2023-06-10T03:37:57;14.60;;;6.30;;
51499;SDS011;39101;53.478;6.158;2023-06-10T03:40:24;12.02;;;5.97;;
51499;SDS011;39101;53.478;6.158;2023-06-10T03:42:49;14.93;;;6.30;;
51499;SDS011;39101;53.478;6.158;2023-06-10T03:45:15;12.27;;;6.07;;
51499;SDS011;39101;53.478;6.158;2023-06-10T03:47:41;9.98;;;5.95;;
51499;SDS011;39101;53.478;6.158;2023-06-10T03:50:07;14.40;;;5.97;;
51499;SDS011;39101;53.478;6.158;2023-06-10T03:52:34;14.93;;;7.25;;
51499;SDS011;39101;53.478;6.158;2023-06-10T03:55:00;11.27;;;6.40;;
51499;SDS011;39101;53.478;6.158;2023-06-10T03:57:26;11.75;;;5.88;;
51499;SDS011;39101;53.478;6.158;2023-06-10T03:59:52;17.17;;;7.90;;
51499;SDS011;39101;53.478;6.158;2023-06-10T04:02:18;12.15;;;6.05;;
51499;SDS011;39101;53.478;6.158;2023-06-10T04:04:44;11.13;;;6.15;;
51499;SDS011;39101;53.478;6.158;2023-06-10T04:07:10;15.32;;;6.75;;
51499;SDS011;39101;53.478;6.158;2023-06-10T04:09:36;15.27;;;6.38;;
51499;SDS011;39101;53.478;6.158;2023-06-10T04:12:02;12.10;;;6.40;;
51499;SDS011;39101;53.478;6.158;2023-06-10T04:14:31;14.75;;;6.28;;
51499;SDS011;39101;53.478;6.158;2023-06-10T04:16:56;11.80;;;5.82;;
51499;SDS011;39101;53.478;6.158;2023-06-10T04:19:22;12.55;;;6.78;;
51499;SDS011;39101;53.478;6.158;2023-06-10T04:21:48;13.18;;;7.18;;
51499;SDS011;39101;53.478;6.158;2023-06-10T04:24:13;12.98;;;6.00;;
51499;SDS011;39101;53.478;6.158;2023-06-10T04:26:39;12.57;;;6.55;;
51499;SDS011;39101;53.478;6.158;2023-06-10T04:29:04;11.35;;;5.88;;
51499;SDS011;39101;53.478;6.158;2023-06-10T04:31:32;13.75;;;6.75;;
51499;SDS011;39101;53.478;6.158;2023-06-10T04:33:57;12.60;;;5.63;;
51499;SDS011;39101;53.478;6.158;2023-06-10T04:36:23;13.68;;;5.63;;
51499;SDS011;39101;53.478;6.158;2023-06-10T04:38:49;15.15;;;6.10;;
51499;SDS011;39101;53.478;6.158;2023-06-10T04:41:17;11.70;;;6.35;;
51499;SDS011;39101;53.478;6.158;2023-06-10T04:43:43;14.60;;;5.88;;
51499;SDS011;39101;53.478;6.158;2023-06-10T04:46:08;13.55;;;5.78;;
51499;SDS011;39101;53.478;6.158;2023-06-10T04:48:35;12.80;;;6.20;;
51499;SDS011;39101;53.478;6.158;2023-06-10T04:51:02;12.23;;;6.07;;
51499;SDS011;39101;53.478;6.158;2023-06-10T04:53:27;13.48;;;5.93;;
51499;SDS011;39101;53.478;6.158;2023-06-10T04:55:53;9.43;;;5.88;;
51499;SDS011;39101;53.478;6.158;2023-06-10T04:58:19;11.43;;;6.65;;
51499;SDS011;39101;53.478;6.158;2023-06-10T05:00:45;13.52;;;6.38;;
51499;SDS011;39101;53.478;6.158;2023-06-10T05:03:10;12.98;;;6.22;;
51499;SDS011;39101;53.478;6.158;2023-06-10T05:05:36;11.85;;;5.38;;
51499;SDS011;39101;53.478;6.158;2023-06-10T05:08:02;13.80;;;6.20;;
51499;SDS011;39101;53.478;6.158;2023-06-10T05:10:27;10.85;;;6.07;;
51499;SDS011;39101;53.478;6.158;2023-06-10T05:12:56;10.40;;;5.78;;
51499;SDS011;39101;53.478;6.158;2023-06-10T05:15:22;12.25;;;6.00;;
51499;SDS011;39101;53.478;6.158;2023-06-10T05:17:48;15.93;;;6.50;;
51499;SDS011;39101;53.478;6.158;2023-06-10T05:20:14;13.32;;;6.20;;
51499;SDS011;39101;53.478;6.158;2023-06-10T05:22:40;12.27;;;6.28;;
51499;SDS011;39101;53.478;6.158;2023-06-10T05:25:06;15.10;;;7.07;;
51499;SDS011;39101;53.478;6.158;2023-06-10T05:27:32;12.15;;;6.10;;
51499;SDS011;39101;53.478;6.158;2023-06-10T05:29:58;14.27;;;6.35;;
51499;SDS011;39101;53.478;6.158;2023-06-10T05:32:24;12.68;;;6.20;;
51499;SDS011;39101;53.478;6.158;2023-06-10T05:34:49;11.95;;;5.85;;
51499;SDS011;39101;53.478;6.158;2023-06-10T05:37:15;13.52;;;5.97;;
51499;SDS011;39101;53.478;6.158;2023-06-10T05:39:41;12.95;;;5.85;;
51499;SDS011;39101;53.478;6.158;2023-06-10T05:42:06;13.32;;;5.50;;
51499;SDS011;39101;53.478;6.158;2023-06-10T05:44:33;13.20;;;6.03;;
51499;SDS011;39101;53.478;6.158;2023-06-10T05:46:59;13.00;;;6.28;;
51499;SDS011;39101;53.478;6.158;2023-06-10T05:49:24;16.52;;;6.95;;
51499;SDS011;39101;53.478;6.158;2023-06-10T05:51:50;12.85;;;5.60;;
51499;SDS011;39101;53.478;6.158;2023-06-10T05:54:17;10.10;;;6.00;;
51499;SDS011;39101;53.478;6.158;2023-06-10T05:56:43;13.57;;;6.30;;
51499;SDS011;39101;53.478;6.158;2023-06-10T05:59:09;11.73;;;6.22;;
51499;SDS011;39101;53.478;6.158;2023-06-10T06:01:35;13.23;;;6.30;;
51499;SDS011;39101;53.478;6.158;2023-06-10T06:04:01;15.07;;;6.78;;
51499;SDS011;39101;53.478;6.158;2023-06-10T06:06:26;13.00;;;6.97;;
51499;SDS011;39101;53.478;6.158;2023-06-10T06:08:52;13.85;;;6.25;;
51499;SDS011;39101;53.478;6.158;2023-06-10T06:11:18;12.52;;;6.90;;
51499;SDS011;39101;53.478;6.158;2023-06-10T06:13:44;10.63;;;5.85;;
51499;SDS011;39101;53.478;6.158;2023-06-10T06:16:09;14.38;;;5.97;;
51499;SDS011;39101;53.478;6.158;2023-06-10T06:18:35;11.30;;;6.15;;
51499;SDS011;39101;53.478;6.158;2023-06-10T06:21:01;11.13;;;5.70;;
51499;SDS011;39101;53.478;6.158;2023-06-10T06:23:26;12.77;;;6.60;;
51499;SDS011;39101;53.478;6.158;2023-06-10T06:25:52;15.30;;;6.03;;
51499;SDS011;39101;53.478;6.158;2023-06-10T06:28:18;12.57;;;5.60;;
51499;SDS011;39101;53.478;6.158;2023-06-10T06:30:46;14.93;;;6.32;;
51499;SDS011;39101;53.478;6.158;2023-06-10T06:33:11;11.55;;;7.03;;
51499;SDS011;39101;53.478;6.158;2023-06-10T06:35:38;11.13;;;5.90;;
51499;SDS011;39101;53.478;6.158;2023-06-10T06:38:03;15.43;;;6.45;;
51499;SDS011;39101;53.478;6.158;2023-06-10T06:40:30;12.23;;;5.55;;
51499;SDS011;39101;53.478;6.158;2023-06-10T06:42:55;13.63;;;5.78;;
51499;SDS011;39101;53.478;6.158;2023-06-10T06:45:21;15.65;;;6.32;;
51499;SDS011;39101;53.478;6.158;2023-06-10T06:47:47;14.80;;;6.38;;
51499;SDS011;39101;53.478;6.158;2023-06-10T06:50:12;14.95;;;6.95;;
51499;SDS011;39101;53.478;6.158;2023-06-10T06:52:38;16.48;;;6.57;;
51499;SDS011;39101;53.478;6.158;2023-06-10T06:55:04;12.18;;;6.25;;
51499;SDS011;39101;53.478;6.158;2023-06-10T06:57:30;14.02;;;6.18;;
51499;SDS011;39101;53.478;6.158;2023-06-10T06:59:56;8.77;;;5.35;;
51499;SDS011;39101;53.478;6.158;2023-06-10T07:02:21;16.40;;;6.25;;
51499;SDS011;39101;53.478;6.158;2023-06-10T07:04:47;14.13;;;5.88;;
51499;SDS011;39101;53.478;6.158;2023-06-10T07:07:14;13.48;;;6.03;;
51499;SDS011;39101;53.478;6.158;2023-06-10T07:09:40;14.13;;;6.15;;
51499;SDS011;39101;53.478;6.158;2023-06-10T07:12:06;12.20;;;6.22;;
51499;SDS011;39101;53.478;6.158;2023-06-10T07:14:32;10.77;;;5.40;;
51499;SDS011;39101;53.478;6.158;2023-06-10T07:16:58;9.77;;;5.50;;
51499;SDS011;39101;53.478;6.158;2023-06-10T07:19:24;13.23;;;5.68;;
51499;SDS011;39101;53.478;6.158;2023-06-10T07:21:49;10.85;;;5.50;;
51499;SDS011;39101;53.478;6.158;2023-06-10T07:24:15;10.85;;;5.82;;
51499;SDS011;39101;53.478;6.158;2023-06-10T07:26:41;11.45;;;5.88;;
51499;SDS011;39101;53.478;6.158;2023-06-10T07:29:06;11.23;;;5.47;;
51499;SDS011;39101;53.478;6.158;2023-06-10T07:31:32;10.75;;;5.40;;
51499;SDS011;39101;53.478;6.158;2023-06-10T07:33:58;14.27;;;6.43;;
51499;SDS011;39101;53.478;6.158;2023-06-10T07:36:23;11.05;;;5.65;;
51499;SDS011;39101;53.478;6.158;2023-06-10T07:38:52;8.65;;;4.95;;
51499;SDS011;39101;53.478;6.158;2023-06-10T07:41:18;12.35;;;5.35;;
51499;SDS011;39101;53.478;6.158;2023-06-10T07:43:44;11.35;;;4.70;;
51499;SDS011;39101;53.478;6.158;2023-06-10T07:46:10;12.45;;;5.45;;
51499;SDS011;39101;53.478;6.158;2023-06-10T07:48:36;9.57;;;4.90;;
51499;SDS011;39101;53.478;6.158;2023-06-10T07:51:01;10.07;;;4.32;;
51499;SDS011;39101;53.478;6.158;2023-06-10T07:53:27;12.02;;;4.68;;
51499;SDS011;39101;53.478;6.158;2023-06-10T07:55:53;8.27;;;4.53;;
51499;SDS011;39101;53.478;6.158;2023-06-10T07:58:19;12.00;;;6.03;;
51499;SDS011;39101;53.478;6.158;2023-06-10T08:00:46;11.13;;;4.68;;
51499;SDS011;39101;53.478;6.158;2023-06-10T08:03:11;10.05;;;3.95;;
51499;SDS011;39101;53.478;6.158;2023-06-10T08:05:38;11.93;;;4.45;;
51499;SDS011;39101;53.478;6.158;2023-06-10T08:08:04;10.40;;;5.03;;
51499;SDS011;39101;53.478;6.158;2023-06-10T08:10:30;10.38;;;4.43;;
51499;SDS011;39101;53.478;6.158;2023-06-10T08:12:56;10.00;;;4.82;;
51499;SDS011;39101;53.478;6.158;2023-06-10T08:15:21;13.38;;;5.18;;
51499;SDS011;39101;53.478;6.158;2023-06-10T08:17:47;10.40;;;4.53;;
51499;SDS011;39101;53.478;6.158;2023-06-10T08:20:13;8.32;;;4.35;;
51499;SDS011;39101;53.478;6.158;2023-06-10T08:22:38;12.63;;;5.55;;
51499;SDS011;39101;53.478;6.158;2023-06-10T08:25:04;11.90;;;4.82;;
51499;SDS011;39101;53.478;6.158;2023-06-10T08:27:30;10.68;;;4.40;;
51499;SDS011;39101;53.478;6.158;2023-06-10T08:29:56;11.68;;;5.18;;
51499;SDS011;39101;53.478;6.158;2023-06-10T08:32:21;8.60;;;4.57;;
51499;SDS011;39101;53.478;6.158;2023-06-10T08:34:47;9.02;;;4.60;;
51499;SDS011;39101;53.478;6.158;2023-06-10T08:37:13;10.30;;;4.38;;
51499;SDS011;39101;53.478;6.158;2023-06-10T08:39:38;10.80;;;4.63;;
51499;SDS011;39101;53.478;6.158;2023-06-10T08:42:09;10.70;;;4.85;;
51499;SDS011;39101;53.478;6.158;2023-06-10T08:44:53;11.00;;;4.72;;
51499;SDS011;39101;53.478;6.158;2023-06-10T08:47:24;12.15;;;5.15;;
51499;SDS011;39101;53.478;6.158;2023-06-10T08:49:51;8.80;;;4.55;;
51499;SDS011;39101;53.478;6.158;2023-06-10T08:52:21;9.30;;;4.35;;
51499;SDS011;39101;53.478;6.158;2023-06-10T08:54:56;11.48;;;4.00;;
51499;SDS011;39101;53.478;6.158;2023-06-10T08:57:28;8.30;;;4.40;;
51499;SDS011;39101;53.478;6.158;2023-06-10T08:59:56;10.07;;;4.70;;
51499;SDS011;39101;53.478;6.158;2023-06-10T09:02:23;9.82;;;4.78;;
51499;SDS011;39101;53.478;6.158;2023-06-10T09:04:49;12.57;;;5.78;;
51499;SDS011;39101;53.478;6.158;2023-06-10T09:07:15;11.25;;;4.70;;
51499;SDS011;39101;53.478;6.158;2023-06-10T09:09:42;12.10;;;5.47;;
51499;SDS011;39101;53.478;6.158;2023-06-10T09:12:09;10.95;;;5.05;;
51499;SDS011;39101;53.478;6.158;2023-06-10T09:14:35;13.48;;;5.07;;
51499;SDS011;39101;53.478;6.158;2023-06-10T09:17:02;11.18;;;4.68;;
51499;SDS011;39101;53.478;6.158;2023-06-10T09:19:28;15.23;;;7.05;;
51499;SDS011;39101;53.478;6.158;2023-06-10T09:21:54;12.65;;;4.85;;
51499;SDS011;39101;53.478;6.158;2023-06-10T09:24:21;9.45;;;5.15;;
51499;SDS011;39101;53.478;6.158;2023-06-10T09:26:48;12.38;;;4.70;;
51499;SDS011;39101;53.478;6.158;2023-06-10T09:29:15;14.00;;;5.38;;
51499;SDS011;39101;53.478;6.158;2023-06-10T09:31:42;11.85;;;4.97;;
51499;SDS011;39101;53.478;6.158;2023-06-10T09:36:38;10.35;;;4.95;;
51499;SDS011;39101;53.478;6.158;2023-06-10T09:39:04;12.32;;;5.95;;
51499;SDS011;39101;53.478;6.158;2023-06-10T09:41:39;20.77;;;5.95;;
51499;SDS011;39101;53.478;6.158;2023-06-10T09:44:12;15.52;;;5.95;;
51499;SDS011;39101;53.478;6.158;2023-06-10T09:46:39;14.27;;;6.05;;
51499;SDS011;39101;53.478;6.158;2023-06-10T09:49:05;10.00;;;5.05;;
51499;SDS011;39101;53.478;6.158;2023-06-10T09:51:31;14.35;;;5.55;;
51499;SDS011;39101;53.478;6.158;2023-06-10T09:53:57;15.30;;;5.68;;
51499;SDS011;39101;53.478;6.158;2023-06-10T09:56:34;14.23;;;6.05;;
51499;SDS011;39101;53.478;6.158;2023-06-10T09:59:00;19.42;;;6.90;;
51499;SDS011;39101;53.478;6.158;2023-06-10T10:01:26;13.25;;;6.10;;
51499;SDS011;39101;53.478;6.158;2023-06-10T10:03:52;15.25;;;6.00;;
51499;SDS011;39101;53.478;6.158;2023-06-10T10:06:18;13.05;;;5.95;;
51499;SDS011;39101;53.478;6.158;2023-06-10T10:08:45;18.73;;;5.63;;
51499;SDS011;39101;53.478;6.158;2023-06-10T10:11:12;14.50;;;5.72;;
51499;SDS011;39101;53.478;6.158;2023-06-10T10:13:41;20.38;;;6.72;;
51499;SDS011;39101;53.478;6.158;2023-06-10T10:16:10;11.15;;;5.47;;
51499;SDS011;39101;53.478;6.158;2023-06-10T10:18:41;11.80;;;6.53;;
51499;SDS011;39101;53.478;6.158;2023-06-10T10:21:13;18.25;;;7.47;;
51499;SDS011;39101;53.478;6.158;2023-06-10T10:23:44;17.08;;;5.00;;
51499;SDS011;39101;53.478;6.158;2023-06-10T10:26:19;14.48;;;6.30;;
51499;SDS011;39101;53.478;6.158;2023-06-10T10:31:48;15.45;;;5.60;;
51499;SDS011;39101;53.478;6.158;2023-06-10T10:34:19;17.00;;;6.78;;
51499;SDS011;39101;53.478;6.158;2023-06-10T10:36:50;14.77;;;5.72;;
51499;SDS011;39101;53.478;6.158;2023-06-10T10:39:16;11.10;;;5.88;;
51499;SDS011;39101;53.478;6.158;2023-06-10T10:41:43;13.02;;;6.60;;
51499;SDS011;39101;53.478;6.158;2023-06-10T10:44:10;12.73;;;5.82;;
51499;SDS011;39101;53.478;6.158;2023-06-10T10:46:43;15.93;;;6.95;;
51499;SDS011;39101;53.478;6.158;2023-06-10T10:49:13;20.40;;;8.85;;
51499;SDS011;39101;53.478;6.158;2023-06-10T10:52:01;13.30;;;7.03;;
51499;SDS011;39101;53.478;6.158;2023-06-10T10:54:36;13.20;;;7.13;;
51499;SDS011;39101;53.478;6.158;2023-06-10T11:02:17;15.25;;;6.07;;
51499;SDS011;39101;53.478;6.158;2023-06-10T11:04:58;14.85;;;8.15;;
51499;SDS011;39101;53.478;6.158;2023-06-10T11:07:26;15.40;;;6.65;;
51499;SDS011;39101;53.478;6.158;2023-06-10T11:09:58;19.33;;;6.75;;
51499;SDS011;39101;53.478;6.158;2023-06-10T11:12:40;14.85;;;6.65;;
51499;SDS011;39101;53.478;6.158;2023-06-10T11:20:44;17.42;;;6.20;;
51499;SDS011;39101;53.478;6.158;2023-06-10T11:31:29;13.18;;;6.53;;
51499;SDS011;39101;53.478;6.158;2023-06-10T11:34:01;15.63;;;7.00;;
51499;SDS011;39101;53.478;6.158;2023-06-10T11:36:30;15.15;;;6.45;;
51499;SDS011;39101;53.478;6.158;2023-06-10T11:38:59;14.80;;;6.55;;
51499;SDS011;39101;53.478;6.158;2023-06-10T11:41:27;12.70;;;6.95;;
51499;SDS011;39101;53.478;6.158;2023-06-10T11:43:54;15.70;;;6.55;;
51499;SDS011;39101;53.478;6.158;2023-06-10T11:46:23;13.52;;;6.13;;
51499;SDS011;39101;53.478;6.158;2023-06-10T11:48:52;14.80;;;6.63;;
51499;SDS011;39101;53.478;6.158;2023-06-10T11:51:20;14.52;;;5.65;;
51499;SDS011;39101;53.478;6.158;2023-06-10T11:53:46;13.98;;;5.90;;
51499;SDS011;39101;53.478;6.158;2023-06-10T11:56:13;17.80;;;6.68;;
51499;SDS011;39101;53.478;6.158;2023-06-10T11:58:44;14.57;;;5.95;;
51499;SDS011;39101;53.478;6.158;2023-06-10T12:01:10;14.70;;;6.15;;
51499;SDS011;39101;53.478;6.158;2023-06-10T12:03:36;14.88;;;6.13;;
51499;SDS011;39101;53.478;6.158;2023-06-10T12:06:04;18.30;;;5.82;;
51499;SDS011;39101;53.478;6.158;2023-06-10T12:08:30;12.95;;;5.35;;
51499;SDS011;39101;53.478;6.158;2023-06-10T12:10:57;15.60;;;5.40;;
51499;SDS011;39101;53.478;6.158;2023-06-10T12:13:25;12.50;;;5.20;;
51499;SDS011;39101;53.478;6.158;2023-06-10T12:15:52;16.67;;;5.40;;
51499;SDS011;39101;53.478;6.158;2023-06-10T12:18:18;13.23;;;5.07;;
51499;SDS011;39101;53.478;6.158;2023-06-10T12:20:45;12.50;;;4.63;;
51499;SDS011;39101;53.478;6.158;2023-06-10T12:23:11;12.70;;;4.75;;
51499;SDS011;39101;53.478;6.158;2023-06-10T12:25:37;14.75;;;4.22;;
51499;SDS011;39101;53.478;6.158;2023-06-10T12:28:04;14.93;;;4.68;;
51499;SDS011;39101;53.478;6.158;2023-06-10T12:30:30;15.23;;;4.63;;
51499;SDS011;39101;53.478;6.158;2023-06-10T12:32:57;10.52;;;3.45;;
51499;SDS011;39101;53.478;6.158;2023-06-10T12:35:24;11.00;;;4.22;;
51499;SDS011;39101;53.478;6.158;2023-06-10T12:37:54;16.42;;;4.28;;
51499;SDS011;39101;53.478;6.158;2023-06-10T12:40:32;11.48;;;4.05;;
51499;SDS011;39101;53.478;6.158;2023-06-10T12:42:58;11.88;;;3.90;;
51499;SDS011;39101;53.478;6.158;2023-06-10T12:48:04;11.50;;;3.70;;
51499;SDS011;39101;53.478;6.158;2023-06-10T12:50:34;14.45;;;4.25;;
51499;SDS011;39101;53.478;6.158;2023-06-10T12:53:03;12.93;;;4.07;;
51499;SDS011;39101;53.478;6.158;2023-06-10T12:55:29;12.30;;;3.90;;
51499;SDS011;39101;53.478;6.158;2023-06-10T12:57:55;13.38;;;3.85;;
51499;SDS011;39101;53.478;6.158;2023-06-10T13:00:22;15.25;;;4.20;;
51499;SDS011;39101;53.478;6.158;2023-06-10T13:02:50;13.48;;;4.97;;
51499;SDS011;39101;53.478;6.158;2023-06-10T13:05:17;13.18;;;3.78;;
51499;SDS011;39101;53.478;6.158;2023-06-10T13:07:44;10.90;;;3.70;;
51499;SDS011;39101;53.478;6.158;2023-06-10T13:10:09;16.85;;;3.40;;
51499;SDS011;39101;53.478;6.158;2023-06-10T13:12:35;12.70;;;3.60;;
51499;SDS011;39101;53.478;6.158;2023-06-10T13:15:02;11.68;;;3.50;;
51499;SDS011;39101;53.478;6.158;2023-06-10T13:17:28;16.70;;;5.38;;
51499;SDS011;39101;53.478;6.158;2023-06-10T13:19:54;14.73;;;3.78;;
51499;SDS011;39101;53.478;6.158;2023-06-10T13:22:20;12.82;;;4.07;;
51499;SDS011;39101;53.478;6.158;2023-06-10T13:24:46;11.98;;;3.33;;
51499;SDS011;39101;53.478;6.158;2023-06-10T13:27:12;9.60;;;3.92;;
51499;SDS011;39101;53.478;6.158;2023-06-10T13:29:39;15.00;;;3.92;;
51499;SDS011;39101;53.478;6.158;2023-06-10T13:32:05;12.88;;;3.45;;
51499;SDS011;39101;53.478;6.158;2023-06-10T13:34:31;16.88;;;4.55;;
51499;SDS011;39101;53.478;6.158;2023-06-10T13:36:57;8.93;;;3.92;;
51499;SDS011;39101;53.478;6.158;2023-06-10T13:39:23;11.70;;;3.72;;
51499;SDS011;39101;53.478;6.158;2023-06-10T13:41:49;14.18;;;3.78;;
51499;SDS011;39101;53.478;6.158;2023-06-10T13:44:14;14.80;;;4.40;;
51499;SDS011;39101;53.478;6.158;2023-06-10T13:46:40;9.82;;;3.83;;
51499;SDS011;39101;53.478;6.158;2023-06-10T13:49:06;10.75;;;4.65;;
51499;SDS011;39101;53.478;6.158;2023-06-10T13:51:31;13.43;;;3.45;;
51499;SDS011;39101;53.478;6.158;2023-06-10T13:53:57;12.70;;;3.40;;
51499;SDS011;39101;53.478;6.158;2023-06-10T13:56:22;11.10;;;3.63;;
51499;SDS011;39101;53.478;6.158;2023-06-10T13:58:48;14.27;;;4.20;;
51499;SDS011;39101;53.478;6.158;2023-06-10T14:01:14;12.23;;;3.85;;
51499;SDS011;39101;53.478;6.158;2023-06-10T14:03:40;16.65;;;4.78;;
51499;SDS011;39101;53.478;6.158;2023-06-10T14:06:05;11.68;;;3.92;;
51499;SDS011;39101;53.478;6.158;2023-06-10T14:08:31;10.88;;;3.53;;
51499;SDS011;39101;53.478;6.158;2023-06-10T14:10:57;10.57;;;3.72;;
51499;SDS011;39101;53.478;6.158;2023-06-10T14:13:23;12.65;;;3.58;;
51499;SDS011;39101;53.478;6.158;2023-06-10T14:15:49;10.10;;;2.88;;
51499;SDS011;39101;53.478;6.158;2023-06-10T14:18:14;11.50;;;4.00;;
51499;SDS011;39101;53.478;6.158;2023-06-10T14:20:40;9.68;;;3.33;;
51499;SDS011;39101;53.478;6.158;2023-06-10T14:23:06;13.85;;;3.70;;
51499;SDS011;39101;53.478;6.158;2023-06-10T14:25:31;13.18;;;3.15;;
51499;SDS011;39101;53.478;6.158;2023-06-10T14:27:57;11.35;;;3.40;;
51499;SDS011;39101;53.478;6.158;2023-06-10T14:30:23;10.27;;;3.45;;
51499;SDS011;39101;53.478;6.158;2023-06-10T14:32:48;14.38;;;4.28;;
51499;SDS011;39101;53.478;6.158;2023-06-10T14:35:14;15.00;;;3.67;;
51499;SDS011;39101;53.478;6.158;2023-06-10T14:37:40;15.27;;;3.47;;
51499;SDS011;39101;53.478;6.158;2023-06-10T14:40:06;9.68;;;3.90;;
51499;SDS011;39101;53.478;6.158;2023-06-10T14:42:32;12.88;;;3.65;;
51499;SDS011;39101;53.478;6.158;2023-06-10T14:44:58;14.07;;;3.97;;
51499;SDS011;39101;53.478;6.158;2023-06-10T14:47:24;10.73;;;3.13;;
51499;SDS011;39101;53.478;6.158;2023-06-10T14:49:50;11.77;;;3.75;;
51499;SDS011;39101;53.478;6.158;2023-06-10T14:52:15;11.48;;;3.33;;
51499;SDS011;39101;53.478;6.158;2023-06-10T14:54:41;10.73;;;4.47;;
51499;SDS011;39101;53.478;6.158;2023-06-10T14:57:07;8.73;;;3.00;;
51499;SDS011;39101;53.478;6.158;2023-06-10T14:59:33;12.40;;;3.33;;
51499;SDS011;39101;53.478;6.158;2023-06-10T15:01:59;7.28;;;3.35;;
51499;SDS011;39101;53.478;6.158;2023-06-10T15:04:26;14.40;;;4.15;;